Página principal
METAR-TAF:

METAR-TAF

Aeroportos :

Kuwait, Kuwait

Aeroporto Internacional do Kuwait

latitude: 29-13N, longitude: 047-59E, altura: 55 m

Observação actual do tempo

O boletim foi feito há 14 minutos, às 07:00 UTC
Vento 9 kt de nor-nordeste
Temperatura 30°C
Humidade 17%
Pressão 1013 hPa
Visibilidade 10 km ou mais
sem nuvens abaixo de 1500 metros e sem cumulonimbus

METAR: OKBK 270700Z 02009KT CAVOK 30/02 Q1013 NOSIG

Hora: 10:14 (07:14 UTC)

Previsão

O boletim foi feito há 2 horas e 29 minutos, às 04:45 UTC
Previsão válida de 27 às 06 UTC a 28 às 12 UTC
Vento 8 kt de nor-noroeste com rajadas de 18 kt
Visibilidade: 7000 m
Temporariamente
de 27 às 06 UTC a 27 às 15 UTC
Visibilidade: 4000 m
Poucas nuvensa uma altura de 4000 ft
Nuvens dispersasa uma altura de 8000 ft
chuva fraca

TAF: OKBK 270445Z 2706/2812 34008G18KT 7000 NSC TEMPO 2706/2715 4000 -RA FEW040 SCT080

Observações e previsões do tempo de mais de 4000 aeroportos (mensagens METAR e TAF).

As estações disponíveis são os pontos amarelos e vermelhos sobre o mapa.

Mova o rato sobre o mapa para ver o nome da estação.

Depois clique no ponto para visualizar as observações e previsões meteorológicas.

Para alterar o mapa : clique nos botões verdes com uma cruz preta para aumentar o zoom; no botão verde com uma pitada de zoom; ou nas setas verdes para mapas adjacentes.


METAR-TAF: